EDT,Max TemperatureF,Mean TemperatureF,Min TemperatureF,Max Dew PointF,MeanDew PointF,Min DewpointF,Max Humidity, Mean Humidity, Min Humidity, Max Sea Level PressureIn, Mean Sea Level PressureIn, Min Sea Level PressureIn, Max VisibilityMiles, Mean VisibilityMiles, Min VisibilityMiles, Max Wind SpeedMPH, Mean Wind SpeedMPH, Max Gust SpeedMPH,PrecipitationIn, CloudCover, Events, WindDirDegrees
2012-10-1,67,51,34,49,40,34,96,64,32,29.96,29.92,29.87,10,10,10,13,2,15,0.00,1,,217
2012-10-2,69,55,40,51,45,39,100,71,42,30.01,29.94,29.87,10,8,0,10,2,14,0.00,2,Fog,70
2012-10-3,67,54,40,58,50,39,100,84,68,30.03,30.00,29.98,10,5,0,9,2,12,0.15,8,Fog-Rain,132
2012-10-4,73,65,56,58,56,52,100,73,46,30.01,29.94,29.86,10,8,3,14,7,23,0.06,6,Rain,208
2012-10-5,62,53,44,50,36,29,76,55,33,29.96,29.91,29.86,10,10,10,17,9,26,0.00,4,,247
2012-10-6,50,42,33,36,33,29,76,65,53,30.10,29.93,29.82,10,10,7,23,9,30,0.02,7,Rain,284
2012-10-7,50,40,29,34,30,27,100,71,42,30.12,30.09,30.06,10,10,10,15,5,23,T,5,Rain,248
2012-10-8,56,44,31,31,27,25,89,60,30,30.13,30.07,30.01,10,10,10,18,9,25,0.00,1,,202
2012-10-9,61,53,44,45,34,26,66,53,39,30.00,29.85,29.70,10,10,10,22,13,29,0.04,6,Rain,197
2012-10-10,47,40,33,43,37,31,96,75,53,30.06,29.83,29.72,10,9,6,20,8,28,0.15,7,Rain,264
2012-10-11,47,39,30,42,34,27,92,79,65,30.14,30.00,29.88,10,10,6,22,7,32,0.13,6,Rain-Snow,230
2012-10-12,49,40,31,34,29,22,96,66,36,30.45,30.36,30.16,10,10,10,10,5,14,T,3,Rain,265
2012-10-13,47,39,30,47,40,25,100,80,59,30.38,30.01,29.79,10,6,2,18,7,24,0.89,7,Rain,169
2012-10-14,64,55,46,62,53,46,100,92,83,29.81,29.57,29.26,10,5,0,20,7,35,1.13,8,Fog-Rain,141
2012-10-15,47,43,38,46,39,34,96,83,70,29.93,29.61,29.27,10,8,4,20,9,35,0.52,8,Rain,298
2012-10-16,54,43,31,42,36,31,96,78,59,29.96,29.87,29.73,10,10,10,13,6,16,0.00,5,,173
2012-10-17,71,59,46,52,47,41,93,70,47,29.71,29.59,29.50,10,10,10,20,10,24,T,3,Rain,157
2012-10-18,61,50,38,54,48,38,96,81,66,29.66,29.48,29.38,10,10,9,21,11,30,0.03,7,Rain,153
2012-10-19,54,49,43,50,46,40,93,87,80,29.66,29.63,29.57,10,8,1,22,7,35,0.34,8,Rain-Thunderstorm,127
2012-10-20,56,50,43,47,45,39,100,80,59,29.83,29.66,29.59,10,9,4,17,6,22,0.13,6,Rain,339
2012-10-21,61,49,36,46,41,35,96,73,49,30.07,29.99,29.85,10,10,6,12,3,21,0.00,0,,251
2012-10-22,63,48,33,50,43,33,100,80,60,30.08,30.05,30.00,10,10,6,8,2,10,0.00,4,,95
2012-10-23,55,53,50,50,48,46,96,84,72,30.08,30.04,29.99,10,7,2,16,11,25,0.04,8,Rain,87
2012-10-24,57,54,50,56,53,49,100,97,93,30.07,30.01,29.93,6,2,0,13,6,16,0.06,8,Fog-Rain,117
2012-10-25,77,64,51,59,55,52,100,77,54,29.93,29.80,29.65,10,6,0,29,14,39,0.00,3,Fog,171
2012-10-26,70,50,30,55,37,26,93,69,45,30.30,30.07,29.69,10,9,4,20,7,32,0.09,5,Rain,291
2012-10-27,48,39,29,33,30,26,92,75,57,30.31,30.28,30.25,10,10,10,13,5,16,0.00,5,,330
2012-10-28,46,41,36,31,27,23,82,64,45,30.33,30.29,30.25,10,10,10,24,13,29,0.00,3,,349
2012-10-29,43,40,37,28,26,23,64,55,45,30.24,30.15,29.96,10,10,10,33,21,45,T,4,,354
2012-10-30,39,37,34,38,35,28,100,91,82,29.93,29.68,29.60,10,4,2,35,20,46,0.73,8,Rain-Snow,350
2012-10-31,41,39,37,37,36,34,100,87,73,29.63,29.59,29.55,10,7,3,21,12,29,0.05,8,Rain,326